Time;durP1;ratioP1;P1;durP2;ratioP2;P2;SDS_P1;SDS_P2;PMS_P1;PMS_P2;Temp;Humidity;BMP_temperature;BMP_pressure;BME280_temperature;BME280_humidity;BME280_pressure;Samples;Min_cycle;Max_cycle;Signal;HPM_P1;HPM_P2
2022/01/11 00:01:40;;;;;;;13.57;6.50;;;-1.90;74.80;;;;;;5056703;28;20025;-33
2022/01/11 00:04:06;;;;;;;13.93;7.38;;;-1.90;74.60;;;;;;5056762;28;20104;-33
2022/01/11 00:06:39;;;;;;;16.20;7.25;;;-1.90;74.80;;;;;;5056718;28;20452;-36
2022/01/11 00:09:19;;;;;;;15.10;6.35;;;-1.90;75.00;;;;;;5056958;28;20040;-33
2022/01/11 00:11:46;;;;;;;10.40;5.87;;;-1.90;75.00;;;;;;5056896;28;20067;-36
2022/01/11 00:14:12;;;;;;;11.32;6.15;;;-1.90;75.00;;;;;;5056518;28;20032;-36
2022/01/11 00:16:38;;;;;;;11.25;6.60;;;-1.90;75.00;;;;;;5056359;28;20029;-35
2022/01/11 00:19:06;;;;;;;11.43;5.80;;;-1.90;74.70;;;;;;5056891;28;20029;-36
2022/01/11 00:21:33;;;;;;;10.52;5.78;;;-1.90;74.50;;;;;;5056381;28;20029;-33
2022/01/11 00:26:44;;;;;;;9.75;5.43;;;-1.90;74.40;;;;;;5056649;28;20072;-32
2022/01/11 00:29:09;;;;;;;9.13;5.30;;;-1.90;74.30;;;;;;5056520;28;20044;-33
2022/01/11 00:31:35;;;;;;;9.25;6.13;;;-2.00;74.10;;;;;;5056114;28;20341;-33
2022/01/11 00:34:02;;;;;;;9.18;5.22;;;-2.00;74.10;;;;;;5056567;28;20367;-33
2022/01/11 00:36:40;;;;;;;12.70;5.50;;;-2.00;74.10;;;;;;5056075;28;20037;-33
2022/01/11 00:39:06;;;;;;;9.30;5.70;;;-2.10;74.00;;;;;;5056404;28;20033;-35
2022/01/11 00:41:31;;;;;;;11.95;6.43;;;-2.10;74.00;;;;;;5055909;28;20463;-33
2022/01/11 00:43:57;;;;;;;14.30;5.50;;;-2.10;74.20;;;;;;5056114;28;20028;-37
2022/01/11 00:46:23;;;;;;;13.27;6.00;;;-2.20;74.40;;;;;;5055959;28;20032;-33
2022/01/11 00:48:49;;;;;;;7.43;5.10;;;-2.20;74.50;;;;;;5056109;28;20051;-36
2022/01/11 00:51:14;;;;;;;8.32;5.38;;;-2.20;74.60;;;;;;5055821;28;20033;-35
2022/01/11 00:53:41;;;;;;;10.27;5.65;;;-2.20;74.70;;;;;;5056236;28;20055;-33
2022/01/11 00:56:07;;;;;;;9.20;5.28;;;-2.10;74.80;;;;;;5055574;28;20064;-35
2022/01/11 00:58:33;;;;;;;9.50;5.32;;;-2.20;74.60;;;;;;5056041;28;20099;-33
2022/01/11 01:00:59;;;;;;;8.68;5.22;;;-2.20;74.30;;;;;;5055473;28;20037;-34
2022/01/11 01:03:25;;;;;;;8.70;5.65;;;-2.20;74.30;;;;;;5055929;28;20044;-33
2022/01/11 01:05:51;;;;;;;12.77;6.18;;;-2.20;74.50;;;;;;5055473;28;20056;-33
2022/01/11 01:08:17;;;;;;;9.23;5.13;;;-2.20;74.70;;;;;;5055897;28;20074;-36
2022/01/11 01:10:46;;;;;;;10.20;5.72;;;-2.10;74.80;;;;;;5055448;28;20073;-36
2022/01/11 01:13:17;;;;;;;9.82;4.95;;;-2.20;74.60;;;;;;5055647;28;20021;-36
2022/01/11 01:15:46;;;;;;;8.88;5.60;;;-2.10;74.60;;;;;;5055802;28;20041;-32
2022/01/11 01:18:17;;;;;;;9.32;5.35;;;-2.20;74.30;;;;;;5055832;28;20303;-36
2022/01/11 01:20:44;;;;;;;10.30;5.00;;;-2.20;74.60;;;;;;5055612;28;20037;-32
2022/01/11 01:23:11;;;;;;;8.75;5.18;;;-2.20;74.50;;;;;;5055659;28;20033;-33
2022/01/11 01:25:37;;;;;;;7.30;4.90;;;-2.20;74.40;;;;;;5055877;28;20051;-33
2022/01/11 01:28:02;;;;;;;9.07;5.40;;;-2.20;74.30;;;;;;5055689;28;20033;-35
2022/01/11 01:30:28;;;;;;;9.48;5.38;;;-2.20;74.30;;;;;;5055753;28;20033;-32
2022/01/11 01:32:54;;;;;;;6.30;4.82;;;-2.10;74.50;;;;;;5055618;28;20029;-32
2022/01/11 01:35:23;;;;;;;12.40;4.75;;;-2.20;74.40;;;;;;5055583;28;20060;-33
2022/01/11 01:37:49;;;;;;;8.82;5.22;;;-2.20;74.20;;;;;;5055878;28;20409;-36
2022/01/11 01:40:17;;;;;;;9.68;4.93;;;-2.20;74.10;;;;;;5055703;28;20040;-33
2022/01/11 01:42:44;;;;;;;8.40;5.20;;;-2.10;74.20;;;;;;5055392;28;20401;-35
2022/01/11 01:45:12;;;;;;;8.05;4.95;;;-2.10;74.30;;;;;;5055577;28;20033;-36
2022/01/11 01:47:38;;;;;;;7.65;4.95;;;-2.20;74.10;;;;;;5055415;28;20047;-35
2022/01/11 01:50:05;;;;;;;9.35;4.97;;;-2.10;74.30;;;;;;5055016;28;20499;-36
2022/01/11 01:52:32;;;;;;;9.57;5.35;;;-2.10;74.10;;;;;;5055355;28;20048;-35
2022/01/11 01:54:58;;;;;;;9.40;5.25;;;-2.20;73.90;;;;;;5055426;28;20039;-36
2022/01/11 01:57:25;;;;;;;8.50;5.65;;;-2.20;73.90;;;;;;5055430;28;20041;-35
2022/01/11 01:59:50;;;;;;;10.02;5.55;;;-2.20;74.10;;;;;;5055466;28;20433;-32
2022/01/11 02:02:16;;;;;;;7.72;5.20;;;-2.20;74.20;;;;;;5055625;28;20037;-36
2022/01/11 02:04:42;;;;;;;10.10;5.97;;;-2.20;74.30;;;;;;5055256;28;20048;-36
2022/01/11 02:07:08;;;;;;;10.45;6.07;;;-2.10;74.20;;;;;;5055497;28;20048;-36
2022/01/11 02:09:33;;;;;;;9.02;5.22;;;-2.20;74.00;;;;;;5055357;28;20415;-33
2022/01/11 02:11:59;;;;;;;14.40;6.78;;;-2.10;74.20;;;;;;5055128;28;20037;-33
2022/01/11 02:14:26;;;;;;;12.73;5.70;;;-2.10;74.00;;;;;;5054920;28;20091;-33
2022/01/11 02:16:53;;;;;;;12.30;4.90;;;-2.10;74.00;;;;;;5055288;28;20043;-36
2022/01/11 02:19:19;;;;;;;9.35;5.63;;;-2.10;73.80;;;;;;5055276;28;20103;-35
2022/01/11 02:21:45;;;;;;;12.20;6.00;;;-2.10;73.90;;;;;;5055894;28;20028;-33
2022/01/11 02:24:10;;;;;;;11.93;5.85;;;-2.10;73.70;;;;;;5058373;28;20075;-34
2022/01/11 02:26:36;;;;;;;13.55;6.57;;;-2.10;73.70;;;;;;5058398;28;20083;-33
2022/01/11 02:29:02;;;;;;;10.30;6.45;;;-2.10;73.60;;;;;;5058977;28;20033;-32
2022/01/11 02:31:28;;;;;;;11.65;6.18;;;-2.10;73.50;;;;;;5058578;28;20436;-33
2022/01/11 02:33:58;;;;;;;13.02;6.53;;;-2.10;73.30;;;;;;5058980;28;20056;-36
2022/01/11 02:36:32;;;;;;;12.90;5.57;;;-2.10;73.70;;;;;;5058113;28;20429;-34
2022/01/11 02:38:58;;;;;;;12.63;6.43;;;-2.10;73.00;;;;;;5058430;28;20025;-36
2022/01/11 02:41:29;;;;;;;11.73;6.50;;;-2.20;72.80;;;;;;5058350;28;20033;-33
2022/01/11 02:43:56;;;;;;;9.57;5.70;;;-2.20;72.90;;;;;;5058334;28;20401;-36
2022/01/11 02:46:23;;;;;;;12.55;6.22;;;-2.20;72.90;;;;;;5058282;28;20045;-33
2022/01/11 02:48:52;;;;;;;13.63;6.63;;;-2.30;73.00;;;;;;5058060;28;20485;-33
2022/01/11 02:51:17;;;;;;;14.45;7.30;;;-2.30;73.10;;;;;;5058029;28;20029;-33
2022/01/11 02:53:51;;;;;;;19.13;8.70;;;-2.30;73.20;;;;;;5058335;28;20056;-35
2022/01/11 02:56:19;;;;;;;17.15;8.48;;;-2.30;73.20;;;;;;5057711;28;20033;-35
2022/01/11 02:58:45;;;;;;;20.80;9.80;;;-2.30;73.20;;;;;;5058313;28;20025;-33
2022/01/11 03:01:11;;;;;;;15.55;7.05;;;-2.30;73.10;;;;;;5057878;28;20353;-33
2022/01/11 03:03:37;;;;;;;14.50;7.65;;;-2.40;73.00;;;;;;5058009;28;20360;-33
2022/01/11 03:06:04;;;;;;;17.33;7.65;;;-2.40;73.00;;;;;;5057474;28;20060;-36
2022/01/11 03:08:33;;;;;;;13.32;7.32;;;-2.40;73.00;;;;;;5058150;28;20469;-35
2022/01/11 03:10:59;;;;;;;14.30;7.72;;;-2.40;73.00;;;;;;5057444;28;20033;-33
2022/01/11 03:13:26;;;;;;;14.65;7.55;;;-2.40;73.00;;;;;;5057957;28;20041;-32
2022/01/11 03:15:53;;;;;;;14.85;6.82;;;-2.30;73.10;;;;;;5057237;28;20033;-35
2022/01/11 03:18:20;;;;;;;22.85;8.40;;;-2.40;72.70;;;;;;5057652;28;20025;-37
2022/01/11 03:20:48;;;;;;;11.85;6.70;;;-2.40;72.60;;;;;;5057669;28;20033;-36
2022/01/11 03:23:14;;;;;;;16.67;8.55;;;-2.40;72.50;;;;;;5057696;28;20025;-33
2022/01/11 03:25:41;;;;;;;17.33;7.32;;;-2.40;72.70;;;;;;5057148;28;20040;-33
2022/01/11 03:28:06;;;;;;;15.40;7.63;;;-2.40;72.80;;;;;;5057748;28;20036;-34
2022/01/11 03:30:33;;;;;;;15.95;8.50;;;-2.40;72.70;;;;;;5057572;28;20033;-36
2022/01/11 03:32:59;;;;;;;19.15;7.75;;;-2.40;72.70;;;;;;5057322;28;20051;-36
2022/01/11 03:35:29;;;;;;;20.63;9.05;;;-2.40;72.60;;;;;;5057513;28;20037;-37
2022/01/11 03:37:55;;;;;;;19.27;9.48;;;-2.40;72.70;;;;;;5057532;28;20040;-33
2022/01/11 03:40:24;;;;;;;17.10;7.90;;;-2.40;72.60;;;;;;5057315;28;20032;-36
2022/01/11 03:42:50;;;;;;;16.05;7.40;;;-2.40;72.70;;;;;;5057240;28;20029;-35
2022/01/11 03:45:20;;;;;;;14.68;7.65;;;-2.40;72.70;;;;;;5057091;28;20035;-33
2022/01/11 03:47:46;;;;;;;15.23;7.82;;;-2.40;72.70;;;;;;5055742;28;20124;-34
2022/01/11 03:50:12;;;;;;;17.65;8.02;;;-2.30;72.70;;;;;;5056544;28;20127;-36
2022/01/11 03:52:39;;;;;;;11.70;6.45;;;-2.30;72.60;;;;;;5057252;28;20044;-37
2022/01/11 03:55:12;;;;;;;19.52;8.60;;;-2.30;72.50;;;;;;5057188;28;20436;-34
2022/01/11 03:57:39;;;;;;;13.48;8.07;;;-2.30;72.50;;;;;;5057128;28;20112;-36
2022/01/11 04:00:10;;;;;;;13.93;7.10;;;-2.30;72.50;;;;;;5057110;28;20459;-37
2022/01/11 04:02:36;;;;;;;15.48;6.03;;;-2.30;72.40;;;;;;5055885;28;20433;-33
2022/01/11 04:05:02;;;;;;;13.60;7.47;;;-2.30;72.30;;;;;;5056858;28;20111;-33
2022/01/11 04:07:29;;;;;;;16.73;8.27;;;-2.30;72.30;;;;;;5056658;28;20405;-36
2022/01/11 04:09:56;;;;;;;14.30;6.95;;;-2.30;72.20;;;;;;5056807;28;20082;-33
2022/01/11 04:12:23;;;;;;;17.95;8.50;;;-2.30;72.10;;;;;;5056732;28;20039;-33
2022/01/11 04:14:49;;;;;;;14.07;7.13;;;-2.20;72.40;;;;;;5056792;28;20225;-33
2022/01/11 04:17:14;;;;;;;13.15;6.97;;;-2.20;72.40;;;;;;5056760;28;20473;-36
2022/01/11 04:19:41;;;;;;;16.77;8.27;;;-2.20;72.30;;;;;;5056605;28;20109;-37
2022/01/11 04:22:06;;;;;;;14.73;8.32;;;-2.20;72.20;;;;;;5056821;28;20299;-33
2022/01/11 04:24:32;;;;;;;17.33;8.55;;;-2.20;72.00;;;;;;5056544;28;20120;-37
2022/01/11 04:26:58;;;;;;;14.27;8.43;;;-2.20;72.10;;;;;;5056325;28;20325;-36
2022/01/11 04:29:23;;;;;;;17.17;8.63;;;-2.20;72.00;;;;;;5056495;28;20095;-36
2022/01/11 04:31:49;;;;;;;21.67;9.63;;;-2.20;72.10;;;;;;5056212;28;20368;-32
2022/01/11 04:34:15;;;;;;;18.35;8.80;;;-2.20;72.30;;;;;;5056232;28;20029;-33
2022/01/11 04:36:41;;;;;;;21.92;9.52;;;-2.20;72.30;;;;;;5056341;28;20409;-36
2022/01/11 04:39:12;;;;;;;17.15;8.48;;;-2.30;72.40;;;;;;5056289;28;20017;-37
2022/01/11 04:41:38;;;;;;;16.48;8.82;;;-2.30;72.50;;;;;;5055952;28;20025;-33
2022/01/11 04:44:04;;;;;;;20.60;10.95;;;-2.30;72.50;;;;;;5055939;28;20343;-35
2022/01/11 04:46:30;;;;;;;19.48;9.93;;;-2.20;72.70;;;;;;5055944;28;20475;-36
2022/01/11 04:48:56;;;;;;;17.20;9.70;;;-2.30;72.70;;;;;;5056003;28;20049;-37
2022/01/11 04:51:24;;;;;;;17.90;10.90;;;-2.30;72.60;;;;;;5055997;28;20421;-33
2022/01/11 04:53:50;;;;;;;20.25;11.30;;;-2.30;72.90;;;;;;5056264;28;20428;-33
2022/01/11 04:56:16;;;;;;;20.40;11.07;;;-2.30;72.90;;;;;;5055492;28;20456;-33
2022/01/11 04:58:42;;;;;;;18.15;9.30;;;-2.30;73.00;;;;;;5056104;28;20021;-37
2022/01/11 05:01:07;;;;;;;18.08;10.05;;;-2.30;73.00;;;;;;5055420;28;20033;-36
2022/01/11 05:03:33;;;;;;;22.80;10.55;;;-2.30;73.10;;;;;;5055553;28;20105;-36
2022/01/11 05:06:00;;;;;;;17.77;9.95;;;-2.30;73.20;;;;;;5055771;28;20379;-33
2022/01/11 05:08:25;;;;;;;22.58;10.30;;;-2.30;73.20;;;;;;5056058;28;20329;-32
2022/01/11 05:10:51;;;;;;;23.23;9.60;;;-2.30;73.20;;;;;;5055418;28;20037;-35
2022/01/11 05:13:19;;;;;;;19.90;8.73;;;-2.30;73.40;;;;;;5055744;28;20025;-33
2022/01/11 05:15:45;;;;;;;14.75;8.25;;;-2.30;73.50;;;;;;5055272;28;20030;-33
2022/01/11 05:18:11;;;;;;;19.00;9.23;;;-2.30;73.40;;;;;;5055701;28;20271;-36
2022/01/11 05:20:38;;;;;;;16.30;8.85;;;-2.30;73.30;;;;;;5055636;28;20025;-36
2022/01/11 05:23:04;;;;;;;15.52;8.95;;;-2.30;73.30;;;;;;5055361;28;20026;-34
2022/01/11 05:25:31;;;;;;;19.85;8.68;;;-2.30;73.50;;;;;;5055695;28;20031;-36
2022/01/11 05:27:59;;;;;;;18.05;8.95;;;-2.30;74.10;;;;;;5055856;28;20328;-34
2022/01/11 05:30:25;;;;;;;14.18;7.25;;;-2.30;73.60;;;;;;5054113;28;20029;-33
2022/01/11 05:32:51;;;;;;;17.73;9.15;;;-2.30;73.50;;;;;;5055996;28;20032;-34
2022/01/11 05:35:17;;;;;;;19.08;7.80;;;-2.20;73.60;;;;;;5055279;28;20401;-33
2022/01/11 05:37:43;;;;;;;16.40;9.77;;;-2.20;73.70;;;;;;5055231;28;20044;-33
2022/01/11 05:40:10;;;;;;;17.35;8.35;;;-2.20;73.60;;;;;;5055323;28;20021;-32
2022/01/11 05:42:36;;;;;;;15.93;7.80;;;-2.30;73.50;;;;;;5055196;28;20033;-33
2022/01/11 05:45:04;;;;;;;18.42;8.18;;;-2.20;73.40;;;;;;5055143;28;20020;-36
2022/01/11 05:47:30;;;;;;;15.07;8.13;;;-2.30;73.40;;;;;;5055503;28;20379;-33
2022/01/11 05:49:55;;;;;;;14.85;7.70;;;-2.30;73.40;;;;;;5054708;28;20127;-33
2022/01/11 05:52:21;;;;;;;16.02;8.48;;;-2.30;73.50;;;;;;5055195;28;20417;-35
2022/01/11 05:54:47;;;;;;;13.88;7.47;;;-2.30;73.60;;;;;;5055226;28;20106;-36
2022/01/11 05:57:13;;;;;;;17.65;7.72;;;-2.30;73.60;;;;;;5058343;28;20037;-33
2022/01/11 05:59:39;;;;;;;14.20;7.25;;;-2.30;73.70;;;;;;5059038;28;20029;-33
2022/01/11 06:02:06;;;;;;;16.40;8.07;;;-2.30;73.70;;;;;;5058951;28;20163;-36
2022/01/11 06:04:32;;;;;;;14.63;7.38;;;-2.20;73.70;;;;;;5058420;28;20360;-33
2022/01/11 06:06:58;;;;;;;14.23;6.90;;;-2.30;73.40;;;;;;5058709;28;20048;-36
2022/01/11 06:09:26;;;;;;;13.07;6.63;;;-2.30;73.30;;;;;;5058614;28;20139;-36
2022/01/11 06:11:53;;;;;;;17.95;7.57;;;-2.30;73.30;;;;;;5058744;28;20032;-33
2022/01/11 06:14:19;;;;;;;13.88;7.68;;;-2.30;73.30;;;;;;5058848;28;20043;-37
2022/01/11 06:16:46;;;;;;;13.20;7.22;;;-2.30;73.40;;;;;;5058292;28;20039;-36
2022/01/11 06:19:11;;;;;;;12.02;6.28;;;-2.30;73.50;;;;;;5058480;28;20029;-35
2022/01/11 06:21:37;;;;;;;17.63;7.78;;;-2.30;73.30;;;;;;5058437;28;20036;-36
2022/01/11 06:24:03;;;;;;;16.10;7.32;;;-2.30;73.50;;;;;;5058728;28;20313;-35
2022/01/11 06:26:30;;;;;;;15.23;7.25;;;-2.30;73.50;;;;;;5058200;28;20108;-34
2022/01/11 06:28:56;;;;;;;12.98;6.97;;;-2.40;73.60;;;;;;5058585;28;20412;-36
2022/01/11 06:31:22;;;;;;;11.43;7.20;;;-2.40;73.50;;;;;;5055251;28;20116;-38
2022/01/11 06:33:48;;;;;;;16.58;7.72;;;-2.40;73.60;;;;;;5058274;28;20047;-36
2022/01/11 06:36:14;;;;;;;14.93;8.38;;;-2.40;73.70;;;;;;5057379;28;20413;-43
2022/01/11 06:38:42;;;;;;;17.50;6.40;;;-2.40;73.80;;;;;;5057504;28;20083;-39
2022/01/11 06:41:08;;;;;;;15.38;6.65;;;-2.40;74.10;;;;;;5057186;28;20026;-40
2022/01/11 06:43:34;;;;;;;12.40;6.50;;;-2.30;74.00;;;;;;5058062;28;20386;-44
2022/01/11 06:46:00;;;;;;;13.95;7.38;;;-2.30;74.60;;;;;;5057474;28;20033;-44
2022/01/11 06:48:25;;;;;;;15.98;7.47;;;-2.30;74.10;;;;;;5058087;28;20033;-41
2022/01/11 06:50:51;;;;;;;12.65;6.88;;;-2.30;74.30;;;;;;5056479;28;20052;-40
2022/01/11 06:53:17;;;;;;;12.27;6.50;;;-2.30;74.30;;;;;;5057929;28;20036;-41
2022/01/11 06:55:42;;;;;;;11.00;6.18;;;-2.20;74.20;;;;;;5057383;28;20029;-44
2022/01/11 06:58:08;;;;;;;14.48;7.50;;;-2.20;74.10;;;;;;5057747;28;20025;-44
2022/01/11 07:00:34;;;;;;;13.77;7.15;;;-2.30;74.10;;;;;;5057550;28;20124;-43
2022/01/11 07:02:59;;;;;;;16.98;6.43;;;-2.30;74.20;;;;;;5057777;28;20436;-44
2022/01/11 07:05:25;;;;;;;15.13;6.60;;;-2.30;74.30;;;;;;5057366;28;20040;-44
2022/01/11 07:07:51;;;;;;;11.52;6.40;;;-2.30;74.20;;;;;;5057031;28;20390;-45
2022/01/11 07:10:17;;;;;;;13.00;6.80;;;-2.30;74.20;;;;;;5057504;28;20033;-41
2022/01/11 07:12:43;;;;;;;12.60;5.90;;;-2.30;74.20;;;;;;5057441;28;20429;-44
2022/01/11 07:15:10;;;;;;;12.60;6.90;;;-2.30;74.30;;;;;;5057482;28;20024;-41
2022/01/11 07:17:36;;;;;;;11.98;6.82;;;-2.40;74.30;;;;;;5057657;28;20041;-44
2022/01/11 07:20:03;;;;;;;11.30;6.20;;;-2.40;74.40;;;;;;5057219;28;20025;-41
2022/01/11 07:22:28;;;;;;;10.45;6.22;;;-2.40;74.50;;;;;;5057385;28;20033;-44
2022/01/11 07:24:54;;;;;;;11.95;6.78;;;-2.40;74.60;;;;;;5056478;28;20025;-41
2022/01/11 07:27:20;;;;;;;8.13;5.30;;;-2.40;74.70;;;;;;5057187;28;20029;-42
2022/01/11 07:29:46;;;;;;;11.57;5.75;;;-2.40;74.60;;;;;;5057165;28;20032;-44
2022/01/11 07:32:12;;;;;;;11.18;5.88;;;-2.40;74.30;;;;;;5054934;28;20037;-44
2022/01/11 07:34:38;;;;;;;12.35;5.85;;;-2.40;74.20;;;;;;5047699;28;20079;-40
2022/01/11 07:37:03;;;;;;;9.88;5.43;;;-2.40;74.50;;;;;;5054836;28;20108;-42
2022/01/11 07:39:29;;;;;;;9.52;5.55;;;-2.40;74.40;;;;;;5056326;28;20036;-39
2022/01/11 07:41:55;;;;;;;14.63;6.47;;;-2.40;74.80;;;;;;5056789;28;20025;-44
2022/01/11 07:44:20;;;;;;;10.90;6.18;;;-2.40;74.60;;;;;;5056839;28;20025;-40
2022/01/11 07:46:46;;;;;;;10.57;5.47;;;-2.40;74.70;;;;;;5056718;28;20048;-39
2022/01/11 07:49:12;;;;;;;11.32;6.20;;;-2.40;74.20;;;;;;5056214;28;20060;-40
2022/01/11 07:51:38;;;;;;;16.63;7.00;;;-2.40;74.40;;;;;;5056482;28;20029;-42
2022/01/11 07:54:04;;;;;;;11.95;6.38;;;-2.40;74.60;;;;;;5056538;28;20405;-40
2022/01/11 07:56:30;;;;;;;8.90;5.45;;;-2.40;74.40;;;;;;5055971;28;20444;-44
2022/01/11 07:58:56;;;;;;;10.57;6.53;;;-2.30;74.80;;;;;;5056276;28;20174;-39
2022/01/11 08:01:21;;;;;;;10.40;5.63;;;-2.30;74.90;;;;;;5055921;28;20082;-44
2022/01/11 08:03:47;;;;;;;10.25;5.72;;;-2.30;74.80;;;;;;5056372;28;20063;-44
2022/01/11 08:06:14;;;;;;;10.45;5.88;;;-2.20;74.60;;;;;;5055503;28;20314;-44
2022/01/11 08:08:41;;;;;;;11.43;6.10;;;-2.20;74.50;;;;;;5056243;28;20029;-41
2022/01/11 08:11:07;;;;;;;9.25;5.20;;;-2.20;74.30;;;;;;5055757;28;20064;-41
2022/01/11 08:13:33;;;;;;;8.55;5.53;;;-2.20;74.30;;;;;;5056400;28;20369;-42
2022/01/11 08:15:59;;;;;;;9.93;5.40;;;-2.20;74.20;;;;;;5055706;28;20036;-44
2022/01/11 08:18:24;;;;;;;8.85;4.93;;;-2.20;74.10;;;;;;5055825;28;20040;-44
2022/01/11 08:20:50;;;;;;;9.90;5.20;;;-2.20;73.70;;;;;;5035337;28;20112;-42
2022/01/11 08:23:16;;;;;;;10.20;5.80;;;-2.10;73.80;;;;;;5036492;28;20064;-44
2022/01/11 08:25:42;;;;;;;9.65;5.53;;;-2.10;73.60;;;;;;5035538;28;20121;-44
2022/01/11 08:28:09;;;;;;;9.82;5.03;;;-2.10;73.30;;;;;;5036130;28;20021;-44
2022/01/11 08:30:36;;;;;;;8.23;5.10;;;-2.10;73.10;;;;;;5036127;28;20033;-36
2022/01/11 08:33:04;;;;;;;9.25;4.95;;;-2.10;72.60;;;;;;5036071;28;20044;-33
2022/01/11 08:35:31;;;;;;;12.43;6.45;;;-2.10;72.60;;;;;;5036136;28;20421;-35
2022/01/11 08:37:57;;;;;;;7.78;4.25;;;-2.10;72.50;;;;;;5035833;28;20040;-36
2022/01/11 08:40:24;;;;;;;6.25;4.22;;;-2.10;72.10;;;;;;5035820;28;20021;-37
2022/01/11 08:42:49;;;;;;;7.57;4.53;;;-2.10;72.00;;;;;;5035722;28;20044;-33
2022/01/11 08:45:15;;;;;;;10.15;5.45;;;-2.10;72.10;;;;;;5035611;28;20033;-37
2022/01/11 08:47:41;;;;;;;8.15;4.35;;;-2.10;72.30;;;;;;5035732;28;20038;-36
2022/01/11 08:50:11;;;;;;;9.25;5.20;;;-2.10;72.10;;;;;;5034942;28;20120;-37
2022/01/11 08:52:38;;;;;;;10.32;4.57;;;-2.10;72.20;;;;;;5035668;28;20303;-37
2022/01/11 08:55:04;;;;;;;7.38;4.30;;;-2.10;72.30;;;;;;5035535;28;20406;-36
2022/01/11 08:57:31;;;;;;;12.00;4.93;;;-2.10;72.20;;;;;;5035641;28;20128;-34
2022/01/11 08:59:56;;;;;;;11.60;6.43;;;-2.10;72.10;;;;;;5035751;28;20313;-33
2022/01/11 09:02:22;;;;;;;7.72;4.75;;;-2.00;72.10;;;;;;5035776;28;20108;-36
2022/01/11 09:04:49;;;;;;;7.95;4.32;;;-2.00;72.10;;;;;;5035231;28;20025;-37
2022/01/11 09:07:14;;;;;;;10.98;6.00;;;-2.00;71.80;;;;;;5035660;28;20036;-37
2022/01/11 09:09:40;;;;;;;6.78;4.45;;;-1.90;71.60;;;;;;5035675;28;20030;-33
2022/01/11 09:12:08;;;;;;;7.72;3.95;;;-1.90;71.60;;;;;;5035485;28;20365;-34
2022/01/11 09:14:34;;;;;;;8.00;4.50;;;-1.90;71.50;;;;;;5035262;28;20095;-35
2022/01/11 09:17:02;;;;;;;6.38;3.70;;;-1.90;71.10;;;;;;5035648;28;20033;-34
2022/01/11 09:19:29;;;;;;;7.25;4.10;;;-1.90;70.70;;;;;;5035506;28;20025;-35
2022/01/11 09:21:55;;;;;;;10.38;5.38;;;-1.90;70.60;;;;;;5034841;28;20042;-36
2022/01/11 09:24:21;;;;;;;12.45;5.30;;;-1.90;70.80;;;;;;5035478;28;20048;-36
2022/01/11 09:26:48;;;;;;;8.38;4.35;;;-1.90;70.70;;;;;;5035079;28;20033;-36
2022/01/11 09:29:15;;;;;;;21.75;11.73;;;-1.90;70.40;;;;;;5035566;28;20365;-33
2022/01/11 09:31:41;;;;;;;8.80;4.68;;;-1.90;70.70;;;;;;5036642;28;20029;-33
2022/01/11 09:34:07;;;;;;;8.73;5.00;;;-1.90;70.60;;;;;;5039808;28;20376;-33
2022/01/11 09:36:33;;;;;;;11.60;4.80;;;-1.90;70.60;;;;;;5039434;28;20112;-33
2022/01/11 09:38:58;;;;;;;7.80;4.57;;;-1.90;70.40;;;;;;5038337;28;20073;-33
2022/01/11 09:41:25;;;;;;;6.28;3.97;;;-2.00;70.20;;;;;;5039029;28;20064;-37
2022/01/11 09:43:51;;;;;;;7.90;4.05;;;-2.00;70.60;;;;;;5039639;28;20396;-33
2022/01/11 09:46:16;;;;;;;7.85;4.75;;;-2.00;70.40;;;;;;5038868;28;20025;-33
2022/01/11 09:48:43;;;;;;;8.70;5.40;;;-2.00;70.50;;;;;;5039334;28;20045;-33
2022/01/11 09:51:09;;;;;;;9.60;5.10;;;-2.00;70.60;;;;;;5038831;28;20033;-36
2022/01/11 09:53:35;;;;;;;9.32;4.93;;;-2.00;70.40;;;;;;5039132;28;20436;-33
2022/01/11 09:56:08;;;;;;;10.40;5.95;;;-2.00;70.30;;;;;;5038655;28;20025;-36
2022/01/11 09:58:34;;;;;;;9.27;4.03;;;-2.00;70.10;;;;;;5039011;28;20072;-36
2022/01/11 10:01:01;;;;;;;8.73;5.20;;;-1.90;70.10;;;;;;5038563;28;20032;-33
2022/01/11 10:03:26;;;;;;;7.28;4.07;;;-1.90;69.80;;;;;;5039071;28;20025;-33
2022/01/11 10:05:52;;;;;;;7.35;4.25;;;-1.80;69.40;;;;;;5038527;28;20030;-36
2022/01/11 10:08:27;;;;;;;8.23;4.75;;;-1.80;69.40;;;;;;5038692;28;20029;-36
2022/01/11 10:10:57;;;;;;;11.07;4.93;;;-1.80;69.00;;;;;;5038728;28;20321;-33
2022/01/11 10:13:40;;;;;;;11.68;4.22;;;-1.80;69.10;;;;;;5038677;28;20028;-33
2022/01/11 10:16:27;;;;;;;10.70;5.38;;;-1.70;69.00;;;;;;5038376;28;20033;-33
2022/01/11 10:18:54;;;;;;;8.85;4.13;;;-1.70;68.90;;;;;;5058032;28;20352;-36
2022/01/11 10:21:33;;;;;;;9.63;4.70;;;-1.70;68.40;;;;;;5057856;28;20020;-36
2022/01/11 10:24:20;;;;;;;5.78;3.92;;;-1.70;68.40;;;;;;5058450;28;20025;-36
2022/01/11 10:26:46;;;;;;;12.07;5.95;;;-1.70;68.10;;;;;;5057661;28;20052;-32
2022/01/11 10:29:24;;;;;;;7.60;4.43;;;-1.70;68.60;;;;;;5058148;28;20299;-35
2022/01/11 10:31:50;;;;;;;8.57;5.18;;;-1.60;68.10;;;;;;5058121;28;20036;-33
2022/01/11 10:34:31;;;;;;;8.43;5.68;;;-1.70;67.70;;;;;;5058028;28;20083;-33
2022/01/11 10:37:00;;;;;;;8.13;4.95;;;-1.70;67.50;;;;;;5057538;28;20118;-33
2022/01/11 10:39:33;;;;;;;11.27;4.97;;;-1.60;67.90;;;;;;5057943;28;20155;-37
2022/01/11 10:42:01;;;;;;;9.07;5.20;;;-1.60;67.90;;;;;;5057021;28;20112;-35
2022/01/11 10:45:06;;;;;;;10.15;4.78;;;-1.60;67.70;;;;;;5057800;28;20035;-35
2022/01/11 10:47:40;;;;;;;11.80;5.13;;;-1.50;67.60;;;;;;5056723;28;20041;-33
2022/01/11 10:50:09;;;;;;;5.30;3.55;;;-1.50;67.80;;;;;;5057007;28;20037;-34
2022/01/11 10:52:35;;;;;;;8.18;3.95;;;-1.40;67.40;;;;;;5057428;28;20051;-43
2022/01/11 10:55:04;;;;;;;6.50;3.88;;;-1.40;67.40;;;;;;5057906;28;20028;-33
2022/01/11 10:57:33;;;;;;;7.78;4.13;;;-1.30;67.20;;;;;;5057732;28;20336;-33
2022/01/11 11:00:22;;;;;;;10.02;4.25;;;-1.30;67.00;;;;;;5057121;28;20031;-34
2022/01/11 11:02:52;;;;;;;7.15;4.03;;;-1.30;66.50;;;;;;5057777;28;20409;-37
2022/01/11 11:05:24;;;;;;;8.93;4.95;;;-1.30;66.70;;;;;;5057413;28;20033;-37
2022/01/11 11:08:00;;;;;;;7.93;4.15;;;-1.20;67.00;;;;;;5057501;28;20037;-37
2022/01/11 11:10:38;;;;;;;7.68;4.20;;;-1.10;67.10;;;;;;5056497;28;20352;-37
2022/01/11 11:13:06;;;;;;;11.40;4.18;;;-1.10;67.00;;;;;;5057259;28;20124;-33
2022/01/11 11:15:37;;;;;;;8.45;4.82;;;-1.00;66.50;;;;;;5057483;28;20493;-33
2022/01/11 11:18:05;;;;;;;7.28;4.38;;;-0.90;66.90;;;;;;5057474;28;20045;-33
2022/01/11 11:20:33;;;;;;;9.25;4.35;;;-0.90;66.70;;;;;;5057154;28;20029;-33
2022/01/11 11:23:00;;;;;;;5.90;3.90;;;-0.80;66.50;;;;;;5057202;28;20064;-36
2022/01/11 11:25:27;;;;;;;9.32;5.03;;;-0.80;66.30;;;;;;5057143;28;20440;-36
2022/01/11 11:27:53;;;;;;;5.90;3.50;;;-0.70;66.40;;;;;;5056955;28;20037;-33
2022/01/11 11:30:19;;;;;;;10.52;5.63;;;-0.70;66.00;;;;;;5057241;28;20081;-33
2022/01/11 11:32:49;;;;;;;7.70;3.97;;;-0.70;65.40;;;;;;5057135;28;20040;-34
2022/01/11 11:35:15;;;;;;;6.75;4.00;;;-0.70;65.40;;;;;;5054877;28;20116;-37
2022/01/11 11:37:45;;;;;;;8.50;4.30;;;-0.70;65.50;;;;;;5057124;28;20076;-36
2022/01/11 11:40:21;;;;;;;8.05;4.05;;;-0.60;65.80;;;;;;5056824;28;20025;-36
2022/01/11 11:42:55;;;;;;;5.43;3.75;;;-0.60;65.80;;;;;;5057155;28;20326;-33
2022/01/11 11:45:24;;;;;;;7.35;3.65;;;-0.60;65.70;;;;;;5056626;28;20025;-33
2022/01/11 11:47:50;;;;;;;15.90;9.10;;;-0.60;65.60;;;;;;5057056;28;20036;-34
2022/01/11 11:50:19;;;;;;;43.20;25.13;;;-0.60;65.70;;;;;;5056193;28;20518;-33
2022/01/11 11:52:51;;;;;;;7.60;4.68;;;-0.50;65.80;;;;;;5056947;28;20036;-33
2022/01/11 11:55:23;;;;;;;6.53;4.20;;;-0.50;66.00;;;;;;5056128;28;20029;-37
2022/01/11 11:57:53;;;;;;;6.90;4.57;;;-0.50;66.00;;;;;;5056734;28;20107;-33
2022/01/11 12:00:23;;;;;;;8.07;4.88;;;-0.50;66.10;;;;;;5056464;28;20021;-33
2022/01/11 12:02:54;;;;;;;7.55;4.57;;;-0.50;66.30;;;;;;5056676;28;20045;-36
2022/01/11 12:05:36;;;;;;;6.78;4.15;;;-0.60;66.30;;;;;;5056158;28;20041;-36
2022/01/11 12:08:27;;;;;;;8.80;4.78;;;-0.60;66.40;;;;;;5056609;28;20032;-33
2022/01/11 12:11:00;;;;;;;47.65;26.88;;;-0.60;66.60;;;;;;5055991;28;20329;-33
2022/01/11 12:13:35;;;;;;;8.68;4.63;;;-0.70;66.60;;;;;;5056319;28;20033;-37
2022/01/11 12:16:00;;;;;;;7.63;4.18;;;-0.70;66.30;;;;;;5055372;28;20025;-37
2022/01/11 12:18:42;;;;;;;4.93;3.60;;;-0.70;66.50;;;;;;5056668;28;20017;-33
2022/01/11 12:21:07;;;;;;;5.88;4.07;;;-0.70;66.50;;;;;;5055885;28;20119;-33
2022/01/11 12:23:36;;;;;;;7.25;4.30;;;-0.70;66.20;;;;;;5056137;28;20481;-33
2022/01/11 12:26:19;;;;;;;6.28;3.58;;;-0.70;66.20;;;;;;5055494;28;20052;-33
2022/01/11 12:29:08;;;;;;;7.95;4.40;;;-0.70;66.30;;;;;;5056531;28;20358;-33
2022/01/11 12:31:38;;;;;;;11.48;6.10;;;-0.70;66.20;;;;;;5055452;28;20041;-33
2022/01/11 12:34:08;;;;;;;5.68;3.70;;;-0.70;66.10;;;;;;5054065;28;20380;-33
2022/01/11 12:36:59;;;;;;;6.68;4.53;;;-0.70;65.60;;;;;;5055536;28;20066;-36
2022/01/11 12:39:27;;;;;;;7.18;4.30;;;-0.70;65.60;;;;;;5055634;28;20111;-33
2022/01/11 12:41:54;;;;;;;6.22;3.58;;;-0.70;65.40;;;;;;5055892;28;20482;-33
2022/01/11 12:44:31;;;;;;;5.45;3.13;;;-0.70;65.10;;;;;;5055601;28;20028;-37
2022/01/11 12:46:59;;;;;;;6.07;3.85;;;-0.70;65.20;;;;;;5055875;28;20325;-36